Time;durP1;ratioP1;P1;durP2;ratioP2;P2;SDS_P1;SDS_P2;PMS_P1;PMS_P2;Temp;Humidity;BMP_temperature;BMP_pressure;BME280_temperature;BME280_humidity;BME280_pressure;Samples;Min_cycle;Max_cycle;Signal;HPM_P1;HPM_P2
2023/06/03 00:00:13;;;;;;;22.95;16.00;;;17.80;99.90;;;;;;4878480;29;20488;-74
2023/06/03 00:02:40;;;;;;;25.15;15.60;;;17.80;99.90;;;;;;4878611;29;20033;-77
2023/06/03 00:05:06;;;;;;;25.55;16.75;;;17.80;99.90;;;;;;4878422;29;20130;-74
2023/06/03 00:07:32;;;;;;;22.23;15.82;;;17.70;99.90;;;;;;4878472;29;20029;-74
2023/06/03 00:09:59;;;;;;;24.00;16.55;;;17.80;99.90;;;;;;4878637;29;20061;-75
2023/06/03 00:12:25;;;;;;;27.85;15.35;;;17.90;99.90;;;;;;4878114;29;20071;-76
2023/06/03 00:14:51;;;;;;;22.27;15.90;;;17.90;99.90;;;;;;4877294;29;20056;-75
2023/06/03 00:17:16;;;;;;;21.63;14.70;;;18.00;99.90;;;;;;4878580;29;20069;-77
2023/06/03 00:19:43;;;;;;;24.52;15.65;;;18.10;99.90;;;;;;4877793;29;20033;-79
2023/06/03 00:22:09;;;;;;;25.15;15.98;;;18.00;99.90;;;;;;4859298;29;20029;-76
2023/06/03 00:24:35;;;;;;;24.55;15.65;;;17.90;99.90;;;;;;4878314;29;20384;-73
2023/06/03 00:27:05;;;;;;;21.85;15.40;;;18.00;99.90;;;;;;4877142;29;20033;-77
2023/06/03 00:29:31;;;;;;;22.05;15.40;;;18.00;99.90;;;;;;4876363;29;20481;-72
2023/06/03 00:31:57;;;;;;;22.30;15.45;;;18.10;99.90;;;;;;4876467;29;20128;-73
2023/06/03 00:34:26;;;;;;;21.55;14.65;;;18.10;99.90;;;;;;4877496;29;20041;-73
2023/06/03 00:36:52;;;;;;;19.23;14.85;;;18.10;99.90;;;;;;4877917;29;20034;-76
2023/06/03 00:39:18;;;;;;;22.98;15.05;;;18.00;99.90;;;;;;4861689;29;20036;-75
2023/06/03 00:41:44;;;;;;;25.30;16.75;;;18.00;99.90;;;;;;4876434;29;20428;-75
2023/06/03 00:44:10;;;;;;;22.45;16.00;;;18.00;99.90;;;;;;4877965;29;20025;-75
2023/06/03 00:46:36;;;;;;;22.02;15.15;;;18.00;99.90;;;;;;4858834;29;20482;-73
2023/06/03 00:49:02;;;;;;;23.00;15.63;;;18.00;99.90;;;;;;4859440;29;20052;-75
2023/06/03 00:51:31;;;;;;;23.98;15.13;;;18.00;99.90;;;;;;4877888;29;20021;-75
2023/06/03 00:53:58;;;;;;;21.27;15.25;;;18.00;99.90;;;;;;4878600;29;20033;-72
2023/06/03 00:56:23;;;;;;;20.95;15.55;;;18.00;99.90;;;;;;4865689;29;20180;-76
2023/06/03 00:58:50;;;;;;;22.05;15.80;;;18.10;99.90;;;;;;4866127;29;20529;-76
2023/06/03 01:01:15;;;;;;;22.02;15.48;;;18.10;99.90;;;;;;4876766;29;20445;-76
2023/06/03 01:03:44;;;;;;;20.45;14.40;;;18.10;99.90;;;;;;4876790;29;20037;-73
2023/06/03 01:06:34;;;;;;;22.25;15.20;;;18.10;99.90;;;;;;4876742;29;20044;-72
2023/06/03 01:09:29;;;;;;;21.77;15.23;;;18.20;99.90;;;;;;4876115;29;20124;-74
2023/06/03 01:12:39;;;;;;;20.70;14.73;;;18.20;99.90;;;;;;4868309;29;20036;-76
2023/06/03 01:15:15;;;;;;;20.88;15.48;;;18.30;99.90;;;;;;4861045;29;20040;-76
2023/06/03 01:17:47;;;;;;;21.77;16.52;;;18.30;99.90;;;;;;4876602;29;20049;-74
2023/06/03 01:20:15;;;;;;;26.75;18.10;;;18.10;99.90;;;;;;4876333;29;20085;-76
2023/06/03 01:22:44;;;;;;;26.55;17.90;;;18.10;99.90;;;;;;4877918;29;20385;-75
2023/06/03 01:25:12;;;;;;;22.67;15.52;;;18.00;99.90;;;;;;4877625;29;20025;-74
2023/06/03 01:27:41;;;;;;;35.88;18.38;;;18.10;99.90;;;;;;4877503;29;20025;-72
2023/06/03 01:30:10;;;;;;;21.58;16.52;;;18.20;99.90;;;;;;4878862;29;20604;-75
2023/06/03 01:32:37;;;;;;;23.10;17.55;;;18.20;99.90;;;;;;4879886;29;20048;-76
2023/06/03 01:35:06;;;;;;;21.20;15.55;;;18.20;99.90;;;;;;4881157;29;20409;-73
2023/06/03 01:37:34;;;;;;;22.88;17.17;;;18.20;99.90;;;;;;4881132;29;20045;-76
2023/06/03 01:40:01;;;;;;;21.63;15.77;;;18.20;99.90;;;;;;4864428;29;20123;-73
2023/06/03 01:42:31;;;;;;;26.77;17.60;;;18.20;99.90;;;;;;4879563;29;20033;-72
2023/06/03 01:44:58;;;;;;;25.75;17.55;;;18.20;99.90;;;;;;4864031;29;20025;-72
2023/06/03 01:47:27;;;;;;;26.67;17.33;;;18.10;99.90;;;;;;4879574;29;20029;-74
2023/06/03 01:49:56;;;;;;;22.83;17.25;;;18.10;99.90;;;;;;4879397;29;20477;-72
2023/06/03 01:52:22;;;;;;;25.67;18.40;;;18.10;99.90;;;;;;4870354;29;20045;-75
2023/06/03 01:54:48;;;;;;;27.40;18.95;;;18.20;99.90;;;;;;4881024;29;20051;-74
2023/06/03 01:57:16;;;;;;;25.73;19.33;;;18.20;99.90;;;;;;4880868;29;20029;-75
2023/06/03 01:59:42;;;;;;;31.17;21.38;;;18.10;99.90;;;;;;4879439;29;20461;-75
2023/06/03 02:02:08;;;;;;;26.92;20.95;;;18.00;99.90;;;;;;4867942;29;20032;-76
2023/06/03 02:04:33;;;;;;;29.15;21.25;;;18.00;99.90;;;;;;4880587;29;20025;-75
2023/06/03 02:07:00;;;;;;;29.63;21.65;;;18.00;99.90;;;;;;4880357;29;20478;-75
2023/06/03 02:09:28;;;;;;;29.00;21.23;;;18.00;99.90;;;;;;4879420;29;20441;-74
2023/06/03 02:11:55;;;;;;;32.22;21.75;;;18.00;99.90;;;;;;4879015;29;20052;-76
2023/06/03 02:14:22;;;;;;;32.17;20.95;;;18.10;99.90;;;;;;4863878;29;20033;-74
2023/06/03 02:16:48;;;;;;;30.08;22.45;;;18.00;99.90;;;;;;4880038;29;20028;-74
2023/06/03 02:19:17;;;;;;;28.85;21.08;;;18.00;99.90;;;;;;4880575;29;20025;-75
2023/06/03 02:21:43;;;;;;;30.52;21.80;;;18.10;99.90;;;;;;4880238;29;21129;-73
2023/06/03 02:24:10;;;;;;;29.42;21.60;;;18.10;99.90;;;;;;4880326;29;20084;-73
2023/06/03 02:26:38;;;;;;;30.83;22.50;;;18.20;99.90;;;;;;4880034;29;20443;-76
2023/06/03 02:29:05;;;;;;;27.90;20.27;;;18.20;99.90;;;;;;4879916;29;20474;-74
2023/06/03 02:31:32;;;;;;;26.63;20.25;;;18.20;99.90;;;;;;4880217;29;20040;-76
2023/06/03 02:34:00;;;;;;;28.58;21.33;;;18.20;99.90;;;;;;4880018;29;20025;-72
2023/06/03 02:36:26;;;;;;;26.83;21.23;;;18.20;99.90;;;;;;4880124;29;20421;-72
2023/06/03 02:38:51;;;;;;;27.90;19.70;;;18.20;99.90;;;;;;4879665;29;20108;-74
2023/06/03 02:41:17;;;;;;;32.50;20.85;;;18.20;99.90;;;;;;4854543;29;20067;-73
2023/06/03 02:43:43;;;;;;;33.45;21.77;;;18.20;99.90;;;;;;4876515;29;20547;-73
2023/06/03 02:46:09;;;;;;;27.85;21.08;;;18.20;99.90;;;;;;4881668;29;20032;-74
2023/06/03 02:48:36;;;;;;;30.88;20.88;;;18.20;99.90;;;;;;4883628;29;20478;-75
2023/06/03 02:51:01;;;;;;;29.65;22.05;;;18.10;99.90;;;;;;4876537;29;20025;-74
2023/06/03 02:53:27;;;;;;;31.15;24.27;;;18.00;99.90;;;;;;4868114;29;20099;-76
2023/06/03 02:55:53;;;;;;;36.05;26.08;;;17.90;99.90;;;;;;4878491;29;20121;-79
2023/06/03 02:58:19;;;;;;;34.00;24.55;;;17.80;99.90;;;;;;4879810;29;20043;-75
2023/06/03 03:00:45;;;;;;;33.58;25.00;;;17.80;99.90;;;;;;4862730;29;20066;-75
2023/06/03 03:03:12;;;;;;;35.78;26.65;;;17.70;99.90;;;;;;4879905;29;20033;-74
2023/06/03 03:05:38;;;;;;;33.95;25.80;;;17.70;99.90;;;;;;4879414;29;20028;-75
2023/06/03 03:08:04;;;;;;;36.83;25.65;;;17.80;99.90;;;;;;4878483;29;20045;-78
2023/06/03 03:10:30;;;;;;;37.67;25.50;;;17.80;99.90;;;;;;4879288;29;20025;-78
2023/06/03 03:12:56;;;;;;;34.20;25.08;;;17.80;99.90;;;;;;4879560;29;20103;-72
2023/06/03 03:15:22;;;;;;;32.75;23.92;;;17.80;99.90;;;;;;4877886;29;20485;-78
2023/06/03 03:17:51;;;;;;;29.23;21.88;;;17.80;99.90;;;;;;4878321;29;20029;-73
2023/06/03 03:20:17;;;;;;;30.30;23.05;;;17.80;99.90;;;;;;4862700;29;20061;-76
2023/06/03 03:22:46;;;;;;;27.85;22.63;;;17.90;99.90;;;;;;4878005;29;20064;-76
2023/06/03 03:25:16;;;;;;;32.90;23.48;;;17.90;99.90;;;;;;4877973;29;20033;-75
2023/06/03 03:27:43;;;;;;;30.58;22.15;;;17.80;99.90;;;;;;4877702;29;20400;-73
2023/06/03 03:30:10;;;;;;;32.42;22.75;;;17.80;99.90;;;;;;4869572;29;20024;-75
2023/06/03 03:32:39;;;;;;;29.90;23.15;;;17.90;99.90;;;;;;4877692;29;20506;-74
2023/06/03 03:35:13;;;;;;;32.63;23.98;;;17.80;99.90;;;;;;4877758;29;20057;-74
2023/06/03 03:37:40;;;;;;;33.45;21.27;;;17.90;99.90;;;;;;4877513;29;20153;-73
2023/06/03 03:47:33;;;;;;;31.95;21.92;;;18.10;99.90;;;;;;4904905;23;20060;-74
2023/06/03 03:50:01;;;;;;;28.38;20.55;;;18.20;99.90;;;;;;4893474;29;20110;-72
2023/06/03 03:52:29;;;;;;;31.02;22.98;;;18.10;99.90;;;;;;4904456;29;20547;-77
2023/06/03 03:55:00;;;;;;;31.98;23.30;;;18.10;99.90;;;;;;4915614;29;20107;-75
2023/06/03 03:57:26;;;;;;;32.35;24.60;;;18.10;99.90;;;;;;4908481;29;20036;-75
2023/06/03 03:59:54;;;;;;;32.58;22.80;;;18.00;99.90;;;;;;4899126;29;20028;-73
2023/06/03 04:02:20;;;;;;;29.63;22.83;;;18.20;99.90;;;;;;4899284;29;20048;-73
2023/06/03 04:04:47;;;;;;;35.88;23.95;;;18.20;99.90;;;;;;4898993;29;20024;-72
2023/06/03 04:07:21;;;;;;;26.23;22.17;;;18.20;99.90;;;;;;4899246;29;20034;-75
2023/06/03 04:09:48;;;;;;;32.78;22.95;;;18.30;99.90;;;;;;4915915;29;20437;-75
2023/06/03 04:12:29;;;;;;;31.38;23.88;;;18.40;99.90;;;;;;4899146;29;20042;-73
2023/06/03 04:14:57;;;;;;;;;;;18.50;99.90;;;;;;4899697;29;20033;-76
2023/06/03 04:17:25;;;;;;;28.25;20.85;;;18.60;99.90;;;;;;4892775;29;19954;-72
2023/06/03 04:19:52;;;;;;;30.65;21.83;;;18.60;99.90;;;;;;4915912;29;20023;-75
2023/06/03 04:22:24;;;;;;;32.03;22.03;;;18.60;99.90;;;;;;4899016;29;20023;-72
2023/06/03 04:24:57;;;;;;;31.83;22.63;;;18.50;99.90;;;;;;4916061;29;20071;-77
2023/06/03 04:27:26;;;;;;;37.60;23.55;;;18.60;99.90;;;;;;4899113;29;20043;-73
2023/06/03 04:29:53;;;;;;;33.22;25.33;;;18.60;99.90;;;;;;4883274;29;20067;-73
2023/06/03 04:32:20;;;;;;;32.63;24.27;;;18.70;99.90;;;;;;4899171;29;20028;-74
2023/06/03 04:34:55;;;;;;;34.92;23.73;;;18.70;99.90;;;;;;4898538;29;20032;-75
2023/06/03 04:37:22;;;;;;;29.52;21.80;;;18.70;99.90;;;;;;4899024;29;20484;-78
2023/06/03 04:39:49;;;;;;;33.22;23.23;;;18.80;99.90;;;;;;4898580;29;20480;-73
2023/06/03 04:42:16;;;;;;;30.67;23.20;;;18.90;99.90;;;;;;4898936;29;20555;-72
2023/06/03 04:44:43;;;;;;;31.75;23.17;;;19.00;99.90;;;;;;4897499;29;20476;-74
2023/06/03 04:47:10;;;;;;;34.20;25.25;;;19.00;99.90;;;;;;4915508;29;20044;-73
2023/06/03 04:49:38;;;;;;;33.03;23.08;;;19.00;99.90;;;;;;4915546;29;20028;-74
2023/06/03 04:52:09;;;;;;;31.13;22.00;;;19.00;99.90;;;;;;4898051;29;20036;-77
2023/06/03 04:54:40;;;;;;;37.83;23.77;;;19.00;99.90;;;;;;4898460;29;20024;-75
2023/06/03 04:57:06;;;;;;;33.05;23.05;;;19.20;99.90;;;;;;4899429;29;20040;-73
2023/06/03 04:59:33;;;;;;;32.05;23.27;;;19.10;99.90;;;;;;4898332;29;20468;-79
2023/06/03 05:02:00;;;;;;;28.13;21.58;;;19.20;99.90;;;;;;4904332;29;20028;-77
2023/06/03 05:04:29;;;;;;;27.58;20.35;;;19.20;99.90;;;;;;4897563;29;20035;-77
2023/06/03 05:06:57;;;;;;;31.33;20.67;;;19.30;99.90;;;;;;4902070;29;20032;-78
2023/06/03 05:09:24;;;;;;;32.65;22.30;;;19.20;99.90;;;;;;4903434;29;20547;-73
2023/06/03 05:11:53;;;;;;;27.95;22.55;;;19.20;99.90;;;;;;4902657;29;20032;-74
2023/06/03 05:14:18;;;;;;;27.25;21.48;;;19.30;99.90;;;;;;4901185;29;20050;-76
2023/06/03 05:16:44;;;;;;;27.92;21.90;;;19.30;99.90;;;;;;4901545;29;20044;-73
2023/06/03 05:19:10;;;;;;;26.08;20.25;;;19.50;99.90;;;;;;4901773;29;20028;-77
2023/06/03 05:21:38;;;;;;;35.63;21.30;;;19.50;99.90;;;;;;4886404;29;20433;-76
2023/06/03 05:24:04;;;;;;;27.35;20.33;;;19.50;99.90;;;;;;4901583;29;20028;-76
2023/06/03 05:26:30;;;;;;;32.60;20.65;;;19.60;99.90;;;;;;4899671;29;20088;-77
2023/06/03 05:28:56;;;;;;;26.23;19.50;;;19.60;99.90;;;;;;4911722;29;20028;-73
2023/06/03 05:31:24;;;;;;;27.65;20.98;;;19.40;99.90;;;;;;4901513;29;20039;-76
2023/06/03 05:33:49;;;;;;;32.92;22.52;;;19.50;99.90;;;;;;4901375;29;20036;-77
2023/06/03 05:36:20;;;;;;;26.20;20.17;;;19.50;99.90;;;;;;4901486;29;20460;-76
2023/06/03 05:38:46;;;;;;;24.92;18.80;;;19.50;99.90;;;;;;4902046;29;20471;-73
2023/06/03 05:41:13;;;;;;;29.15;19.60;;;19.50;99.90;;;;;;4901279;29;20046;-74
2023/06/03 05:43:40;;;;;;;24.60;17.65;;;19.60;99.90;;;;;;4905399;29;20024;-75
2023/06/03 05:46:05;;;;;;;27.35;19.55;;;19.70;99.90;;;;;;4902041;29;20067;-73
2023/06/03 05:48:31;;;;;;;27.10;20.33;;;19.70;99.90;;;;;;4901599;29;20056;-75
2023/06/03 05:51:05;;;;;;;27.95;20.15;;;19.60;99.90;;;;;;4918648;29;20032;-75
2023/06/03 05:53:31;;;;;;;29.92;22.45;;;19.80;99.90;;;;;;4908690;29;20131;-74
2023/06/03 05:56:00;;;;;;;26.13;18.40;;;20.00;99.90;;;;;;4898328;29;20037;-76
2023/06/03 05:58:27;;;;;;;24.02;18.38;;;19.90;99.90;;;;;;4914068;29;20106;-76
2023/06/03 06:00:53;;;;;;;27.50;18.55;;;19.80;99.90;;;;;;4902186;29;20020;-74
2023/06/03 06:03:20;;;;;;;26.30;19.58;;;19.90;99.90;;;;;;4902471;29;20075;-75
2023/06/03 06:05:46;;;;;;;28.67;20.70;;;19.90;99.90;;;;;;4911632;29;20028;-75
2023/06/03 06:08:13;;;;;;;27.55;18.63;;;19.80;99.90;;;;;;4902383;29;20048;-76
2023/06/03 06:10:38;;;;;;;28.30;20.35;;;19.70;99.90;;;;;;4918307;29;20480;-76
2023/06/03 06:13:04;;;;;;;30.48;21.52;;;19.80;99.90;;;;;;4901820;29;20040;-75
2023/06/03 06:15:31;;;;;;;27.33;20.00;;;19.80;99.90;;;;;;4918065;29;20020;-75
2023/06/03 06:17:58;;;;;;;28.38;22.38;;;19.90;99.90;;;;;;4900442;29;20044;-78
2023/06/03 06:20:24;;;;;;;29.38;21.00;;;19.70;99.90;;;;;;4886366;29;20036;-77
2023/06/03 06:22:51;;;;;;;31.42;20.77;;;19.70;99.90;;;;;;4901542;29;20046;-75
2023/06/03 06:25:17;;;;;;;29.67;22.92;;;19.70;99.90;;;;;;4900779;29;20035;-75
2023/06/03 06:27:44;;;;;;;31.00;23.52;;;19.70;99.90;;;;;;4901360;29;20044;-78
2023/06/03 06:30:14;;;;;;;29.15;21.67;;;19.90;99.90;;;;;;4899676;29;20024;-76
2023/06/03 06:32:49;;;;;;;29.15;21.35;;;20.10;99.90;;;;;;4900519;29;20048;-75
2023/06/03 06:35:20;;;;;;;30.92;21.98;;;20.10;99.90;;;;;;4901356;29;20044;-77
2023/06/03 06:37:47;;;;;;;30.00;22.60;;;20.30;99.90;;;;;;4901549;29;20126;-76
2023/06/03 06:40:19;;;;;;;26.65;19.95;;;20.30;99.90;;;;;;4901044;29;20445;-75
2023/06/03 06:42:46;;;;;;;29.00;21.85;;;20.40;99.90;;;;;;4901478;29;20044;-74
2023/06/03 06:45:33;;;;;;;32.10;23.48;;;20.40;99.90;;;;;;4901278;29;20028;-74
2023/06/03 06:48:12;;;;;;;31.42;20.95;;;20.50;99.90;;;;;;4901389;29;20052;-76
2023/06/03 06:50:59;;;;;;;29.05;21.80;;;20.60;99.90;;;;;;4900554;29;20453;-77
2023/06/03 06:53:33;;;;;;;31.23;23.08;;;20.60;99.90;;;;;;4900504;29;20893;-75
2023/06/03 06:56:08;;;;;;;32.20;21.92;;;20.80;99.90;;;;;;4900732;29;20035;-76
2023/06/03 06:59:06;;;;;;;28.77;23.65;;;20.90;99.90;;;;;;4846980;29;20132;-78
2023/06/03 07:01:34;;;;;;;31.85;24.75;;;21.00;99.90;;;;;;4849872;29;20041;-76
2023/06/03 07:04:00;;;;;;;29.25;23.23;;;21.00;99.90;;;;;;4852942;29;20444;-76
2023/06/03 07:06:26;;;;;;;31.27;22.98;;;21.30;99.90;;;;;;4843595;29;20124;-76
2023/06/03 07:08:57;;;;;;;30.40;24.15;;;21.60;99.90;;;;;;4846585;29;20420;-77
2023/06/03 07:11:25;;;;;;;28.27;21.77;;;21.80;99.90;;;;;;4848087;29;20034;-75
2023/06/03 07:13:57;;;;;;;29.85;24.15;;;22.00;99.90;;;;;;4852510;29;20041;-75
2023/06/03 07:16:24;;;;;;;31.27;22.38;;;22.30;99.90;;;;;;4852388;29;20491;-74
2023/06/03 07:18:53;;;;;;;27.00;20.67;;;22.70;99.90;;;;;;4847016;29;20558;-73
2023/06/03 07:21:25;;;;;;;31.27;21.57;;;23.20;99.90;;;;;;4829989;29;20129;-76
2023/06/03 07:23:54;;;;;;;25.70;20.83;;;23.00;99.90;;;;;;4842465;29;20040;-75
2023/06/03 07:26:21;;;;;;;29.05;20.42;;;23.00;99.90;;;;;;4830879;29;20029;-74
2023/06/03 07:28:47;;;;;;;30.67;20.83;;;23.20;99.90;;;;;;4847975;29;20458;-74
2023/06/03 07:31:14;;;;;;;27.70;21.27;;;23.20;99.90;;;;;;4852067;29;20037;-74
2023/06/03 07:33:51;;;;;;;24.90;18.08;;;23.40;99.90;;;;;;4858257;29;20501;-73
2023/06/03 07:36:22;;;;;;;27.15;20.17;;;23.60;99.90;;;;;;4896559;29;20037;-75
2023/06/03 07:39:11;;;;;;;27.60;19.95;;;23.50;99.90;;;;;;4895790;29;20431;-73
2023/06/03 07:41:52;;;;;;;26.38;19.90;;;23.60;99.90;;;;;;4899624;29;20032;-76
2023/06/03 07:44:30;;;;;;;25.58;20.05;;;23.40;99.90;;;;;;4899732;29;20171;-75
2023/06/03 07:46:57;;;;;;;23.75;19.10;;;23.70;99.90;;;;;;4916032;29;20052;-74
2023/06/03 07:49:23;;;;;;;25.90;19.33;;;23.80;99.90;;;;;;4916639;29;20035;-73
2023/06/03 07:51:51;;;;;;;22.92;18.95;;;23.80;99.90;;;;;;4916300;29;20043;-74
2023/06/03 07:54:18;;;;;;;26.67;19.88;;;23.80;99.90;;;;;;4899683;29;20024;-74
2023/06/03 07:56:44;;;;;;;24.27;18.52;;;23.70;99.90;;;;;;4916270;29;20472;-73
2023/06/03 07:59:13;;;;;;;26.77;18.83;;;23.90;99.90;;;;;;4912250;29;20119;-74
2023/06/03 08:01:39;;;;;;;24.17;19.52;;;24.00;99.90;;;;;;4891382;29;20029;-75
2023/06/03 08:04:28;;;;;;;25.70;19.67;;;23.80;99.90;;;;;;4916135;29;20024;-73
2023/06/03 08:06:55;;;;;;;29.40;19.52;;;23.60;99.90;;;;;;4916052;29;20020;-74
2023/06/03 08:09:30;;;;;;;23.67;19.50;;;23.50;99.90;;;;;;4916167;29;20460;-73
2023/06/03 08:11:57;;;;;;;24.40;19.23;;;23.40;99.90;;;;;;4898361;29;20115;-73
2023/06/03 08:14:24;;;;;;;24.58;18.65;;;23.20;99.90;;;;;;4920464;29;20032;-74
2023/06/03 08:16:51;;;;;;;53.25;31.85;;;23.00;99.90;;;;;;4906903;29;20111;-76
2023/06/03 08:19:17;;;;;;;136.82;54.83;;;23.00;99.90;;;;;;4919115;29;20028;-75
2023/06/03 08:21:48;;;;;;;52.78;31.88;;;23.30;99.90;;;;;;4898939;29;20036;-74
2023/06/03 08:24:14;;;;;;;99.38;52.38;;;23.30;99.90;;;;;;4903581;29;20035;-76
2023/06/03 08:26:40;;;;;;;30.25;22.73;;;23.30;99.90;;;;;;4915852;29;20024;-77
2023/06/03 08:29:06;;;;;;;31.45;21.48;;;23.30;99.90;;;;;;4903621;29;20457;-75
2023/06/03 08:31:32;;;;;;;30.75;20.77;;;22.90;99.90;;;;;;4915633;29;20091;-75
2023/06/03 08:33:59;;;;;;;70.20;34.30;;;22.40;99.90;;;;;;4916099;29;20198;-80
2023/06/03 08:36:25;;;;;;;25.42;18.80;;;22.30;99.90;;;;;;4903277;29;20495;-77
2023/06/03 08:38:51;;;;;;;26.27;19.67;;;21.90;99.90;;;;;;4916327;29;20032;-76
2023/06/03 08:41:17;;;;;;;26.75;20.27;;;21.90;99.90;;;;;;4904891;29;20032;-73
2023/06/03 08:43:50;;;;;;;26.45;20.85;;;21.80;99.90;;;;;;4921960;29;20031;-73
2023/06/03 08:46:28;;;;;;;26.75;20.17;;;21.80;99.90;;;;;;4922402;29;20520;-72
2023/06/03 08:49:03;;;;;;;26.98;19.40;;;21.90;99.90;;;;;;4921854;29;20453;-72
2023/06/03 08:51:37;;;;;;;23.98;19.52;;;21.90;99.90;;;;;;4910031;29;20106;-75
2023/06/03 08:54:13;;;;;;;23.45;18.27;;;21.70;99.90;;;;;;4922186;29;20461;-73
2023/06/03 08:56:47;;;;;;;23.85;18.60;;;21.60;99.90;;;;;;4921906;29;20038;-74
2023/06/03 08:59:21;;;;;;;25.58;18.55;;;21.60;99.90;;;;;;4921864;29;20032;-72
2023/06/03 09:01:55;;;;;;;26.20;19.73;;;21.60;99.90;;;;;;4921864;29;20484;-75
2023/06/03 09:04:21;;;;;;;25.77;17.73;;;21.90;99.90;;;;;;4921798;29;20539;-78
2023/06/03 09:06:49;;;;;;;22.30;17.48;;;22.00;99.90;;;;;;4922103;29;20496;-76
2023/06/03 09:09:15;;;;;;;24.95;18.05;;;22.10;99.90;;;;;;4921795;29;20033;-77
2023/06/03 09:11:43;;;;;;;29.55;18.55;;;22.10;99.90;;;;;;4921263;29;20043;-79
2023/06/03 09:14:10;;;;;;;25.52;17.38;;;21.90;99.90;;;;;;4904890;29;20090;-72
2023/06/03 09:16:36;;;;;;;25.75;20.30;;;22.00;99.90;;;;;;4904761;29;20032;-77
2023/06/03 09:19:03;;;;;;;23.95;18.92;;;21.90;99.90;;;;;;4921906;29;20477;-74
2023/06/03 09:21:29;;;;;;;24.05;18.05;;;22.00;99.90;;;;;;4921471;29;20020;-79
2023/06/03 09:23:55;;;;;;;27.73;18.40;;;22.00;99.90;;;;;;4904812;29;20032;-77
2023/06/03 09:26:21;;;;;;;26.60;18.27;;;22.10;99.90;;;;;;4921690;29;20027;-76
2023/06/03 09:28:48;;;;;;;21.63;17.67;;;22.40;99.90;;;;;;4921826;29;20020;-76
2023/06/03 09:31:14;;;;;;;21.40;15.45;;;22.60;99.90;;;;;;4921561;29;20056;-76
2023/06/03 09:33:43;;;;;;;22.35;17.40;;;23.10;99.90;;;;;;4921538;29;20115;-75
2023/06/03 09:36:13;;;;;;;28.45;17.15;;;;;;;;;;4921972;29;20048;-73
2023/06/03 09:38:46;;;;;;;25.85;17.38;;;23.30;99.90;;;;;;4921526;29;20043;-76
2023/06/03 09:41:17;;;;;;;25.33;17.73;;;23.40;99.90;;;;;;4909195;29;20031;-77
2023/06/03 09:44:01;;;;;;;22.77;16.70;;;23.10;99.90;;;;;;4904528;29;20050;-75
2023/06/03 09:46:30;;;;;;;20.48;14.57;;;23.30;99.90;;;;;;4921096;29;20052;-75
2023/06/03 09:49:09;;;;;;;19.02;13.70;;;23.70;99.90;;;;;;4921500;29;20040;-75
2023/06/03 09:51:43;;;;;;;19.17;12.85;;;23.60;99.90;;;;;;4902866;29;20028;-74
2023/06/03 09:54:14;;;;;;;22.25;12.93;;;23.90;99.90;;;;;;4906274;29;20488;-73
2023/06/03 09:56:40;;;;;;;18.73;13.45;;;23.80;99.90;;;;;;4918782;29;20039;-74
2023/06/03 09:59:16;;;;;;;17.50;11.45;;;23.60;99.90;;;;;;4918307;29;20519;-75
2023/06/03 10:01:45;;;;;;;20.40;12.55;;;23.50;99.90;;;;;;4918568;29;20036;-76
2023/06/03 10:04:11;;;;;;;17.60;13.00;;;23.60;99.90;;;;;;4917633;29;20104;-73
2023/06/03 10:06:38;;;;;;;21.98;13.40;;;23.70;99.90;;;;;;4918384;29;20029;-73
2023/06/03 10:09:25;;;;;;;20.90;12.18;;;23.80;99.90;;;;;;4917880;29;20495;-75
2023/06/03 10:11:53;;;;;;;21.35;12.10;;;23.80;99.90;;;;;;4907246;29;20038;-72
2023/06/03 10:14:21;;;;;;;20.15;11.45;;;23.70;99.90;;;;;;4901348;29;20077;-74
2023/06/03 10:17:13;;;;;;;17.05;11.23;;;23.60;99.90;;;;;;4900865;29;20136;-73
2023/06/03 10:19:44;;;;;;;20.85;12.00;;;23.70;99.90;;;;;;4919332;29;20050;-74
2023/06/03 10:22:12;;;;;;;18.27;11.82;;;23.60;99.90;;;;;;4918489;29;20037;-73
2023/06/03 10:24:42;;;;;;;17.65;11.65;;;23.60;99.90;;;;;;4905499;29;20518;-73
2023/06/03 10:27:09;;;;;;;19.20;12.35;;;23.60;99.90;;;;;;4917653;29;20036;-74
2023/06/03 10:29:36;;;;;;;20.25;13.00;;;23.70;99.90;;;;;;4905302;29;20032;-73
2023/06/03 10:32:12;;;;;;;16.30;10.95;;;24.00;99.90;;;;;;4917848;29;20051;-75
2023/06/03 10:34:43;;;;;;;19.25;11.95;;;24.00;99.90;;;;;;4917983;29;20032;-73
2023/06/03 10:37:10;;;;;;;17.85;11.20;;;24.20;99.90;;;;;;4917465;29;20040;-73
2023/06/03 10:39:36;;;;;;;21.75;12.57;;;24.10;99.90;;;;;;4917761;29;20040;-73
2023/06/03 10:42:05;;;;;;;18.65;10.68;;;24.30;99.90;;;;;;4917477;29;20043;-74
2023/06/03 10:44:32;;;;;;;14.77;10.13;;;24.20;99.90;;;;;;4917452;29;20021;-73
2023/06/03 10:47:22;;;;;;;18.70;10.75;;;24.40;99.90;;;;;;4917662;29;20468;-74
2023/06/03 10:50:02;;;;;;;19.83;10.95;;;24.60;99.90;;;;;;4918684;29;20030;-73
2023/06/03 10:52:49;;;;;;;15.98;9.98;;;24.80;99.90;;;;;;4901657;29;20407;-72
2023/06/03 10:55:32;;;;;;;16.70;10.65;;;24.90;99.90;;;;;;4917776;29;20064;-73
2023/06/03 10:58:12;;;;;;;19.27;10.13;;;25.10;99.90;;;;;;4917601;29;20119;-73
2023/06/03 11:00:58;;;;;;;19.58;9.73;;;24.90;99.90;;;;;;4900395;29;20776;-73
2023/06/03 11:03:29;;;;;;;16.73;10.52;;;24.80;99.90;;;;;;4899828;29;20044;-73
2023/06/03 11:06:31;;;;;;;16.60;8.43;;;25.00;99.90;;;;;;4917696;29;20061;-72
2023/06/03 11:09:12;;;;;;;18.48;10.40;;;25.20;99.90;;;;;;4839909;29;20030;-72
2023/06/03 11:11:41;;;;;;;14.35;9.15;;;25.50;99.90;;;;;;4826615;29;20045;-72
2023/06/03 11:14:25;;;;;;;14.60;7.60;;;25.60;99.90;;;;;;4840756;29;20117;-72
2023/06/03 11:16:56;;;;;;;16.73;7.40;;;25.30;99.90;;;;;;4840235;29;20402;-72
2023/06/03 11:19:31;;;;;;;15.07;7.35;;;25.30;99.90;;;;;;4812514;29;20133;-73
2023/06/03 11:22:07;;;;;;;15.52;8.48;;;25.40;99.90;;;;;;4825144;29;20034;-73
2023/06/03 11:24:42;;;;;;;12.18;7.10;;;25.10;99.90;;;;;;4840195;29;20042;-74
2023/06/03 11:27:12;;;;;;;15.00;7.07;;;25.00;99.90;;;;;;4840044;29;20026;-76
2023/06/03 11:29:46;;;;;;;15.23;6.78;;;25.00;99.90;;;;;;4840439;29;20045;-77
2023/06/03 11:32:15;;;;;;;15.57;7.65;;;24.80;99.90;;;;;;4840273;29;20501;-75
2023/06/03 11:34:42;;;;;;;11.38;6.43;;;24.80;99.90;;;;;;4840114;29;20037;-76
2023/06/03 11:37:11;;;;;;;11.45;6.88;;;24.80;99.90;;;;;;4839737;29;20606;-73
2023/06/03 11:40:03;;;;;;;11.95;6.28;;;24.80;99.90;;;;;;4825038;29;20038;-75
2023/06/03 11:42:29;;;;;;;15.90;7.65;;;24.70;99.90;;;;;;4845284;29;20096;-77
2023/06/03 11:45:29;;;;;;;10.38;6.78;;;24.50;99.90;;;;;;4913944;29;20413;-76
2023/06/03 11:48:05;;;;;;;10.45;5.95;;;24.30;99.90;;;;;;4916082;29;20203;-77
2023/06/03 11:50:44;;;;;;;10.93;5.60;;;24.40;99.90;;;;;;4916567;29;20020;-77
2023/06/03 11:53:26;;;;;;;7.95;5.13;;;24.40;99.90;;;;;;4916400;29;20054;-77
2023/06/03 11:56:03;;;;;;;7.45;4.55;;;24.40;99.90;;;;;;4899323;29;20047;-76
2023/06/03 11:58:29;;;;;;;7.47;5.47;;;24.40;99.90;;;;;;4916426;29;20408;-72
2023/06/03 12:01:11;;;;;;;15.68;5.22;;;24.40;99.90;;;;;;4916117;29;20028;-74
2023/06/03 12:03:38;;;;;;;;;;;24.40;99.90;;;;;;4916459;29;20424;-75
2023/06/03 12:06:04;;;;;;;10.00;4.60;;;24.50;99.90;;;;;;4916215;29;19911;-78
2023/06/03 12:08:43;;;;;;;14.60;5.25;;;24.50;99.90;;;;;;4916063;29;20032;-77
2023/06/03 12:11:09;;;;;;;9.23;4.68;;;24.40;99.90;;;;;;4905839;29;20392;-76
2023/06/03 12:13:41;;;;;;;9.30;4.50;;;24.30;99.90;;;;;;4916256;29;20043;-74
2023/06/03 12:16:07;;;;;;;9.23;4.88;;;24.10;99.90;;;;;;4912084;29;20032;-76
2023/06/03 12:18:33;;;;;;;8.32;4.13;;;24.30;99.90;;;;;;4916129;29;20020;-74
2023/06/03 12:21:19;;;;;;;10.52;4.97;;;24.30;99.90;;;;;;4899353;29;20229;-77
2023/06/03 12:23:46;;;;;;;8.98;4.15;;;24.50;99.90;;;;;;4917119;29;20029;-75
2023/06/03 12:26:12;;;;;;;12.88;4.90;;;24.70;99.90;;;;;;4916084;29;20043;-73
2023/06/03 12:28:37;;;;;;;9.88;4.22;;;24.70;99.90;;;;;;4916448;29;20016;-73
2023/06/03 12:31:13;;;;;;;7.50;4.07;;;24.80;99.90;;;;;;4915938;29;20043;-73
2023/06/03 12:33:43;;;;;;;8.00;4.28;;;24.90;99.90;;;;;;4915847;29;20040;-75
2023/06/03 12:36:09;;;;;;;12.15;4.50;;;25.00;99.90;;;;;;4905322;29;20063;-74
2023/06/03 12:38:55;;;;;;;11.13;5.05;;;24.90;99.90;;;;;;4911946;29;20516;-72
2023/06/03 12:41:21;;;;;;;7.60;4.32;;;25.00;99.90;;;;;;4912997;29;20032;-74
2023/06/03 12:43:47;;;;;;;7.63;4.65;;;25.20;99.90;;;;;;4916532;29;20560;-75
2023/06/03 12:46:17;;;;;;;6.97;3.90;;;25.10;99.90;;;;;;4915273;29;20095;-75
2023/06/03 12:48:44;;;;;;;6.07;3.35;;;25.00;99.90;;;;;;4916384;29;20083;-76
2023/06/03 12:51:22;;;;;;;8.48;4.32;;;25.00;99.90;;;;;;4899713;29;20027;-73